createdAt,value
2019-03-10T03:07:38.195Z,21.4
2019-03-10T03:08:28.272Z,21.4
2019-03-10T03:09:18.315Z,21.4
2019-03-10T03:10:08.378Z,21.4
2019-03-10T03:10:58.419Z,21.4
2019-03-10T03:11:48.550Z,21.4
2019-03-10T03:12:38.272Z,21.4
2019-03-10T03:13:28.606Z,21.4
2019-03-10T03:14:18.670Z,21.4
2019-03-10T03:15:08.735Z,21.4
2019-03-10T03:15:58.514Z,21.4
2019-03-10T03:16:48.837Z,21.4
2019-03-10T03:17:38.643Z,21.4
2019-03-10T03:18:28.975Z,21.4
2019-03-10T03:19:18.767Z,21.4
2019-03-10T03:20:09.085Z,21.4
2019-03-10T03:20:59.236Z,21.4
2019-03-10T03:21:49.198Z,21.4
2019-03-10T03:22:38.995Z,21.4
2019-03-10T03:23:29.331Z,21.4
2019-03-10T03:24:19.411Z,21.4
2019-03-10T03:25:09.194Z,21.4
2019-03-10T03:25:59.302Z,21.4
2019-03-10T03:26:49.572Z,21.4
2019-03-10T03:27:39.634Z,21.4
2019-03-10T03:28:29.435Z,21.5
2019-03-10T03:29:19.478Z,21.4
2019-03-10T03:30:09.837Z,21.4
2019-03-10T03:30:59.907Z,21.4
2019-03-10T03:31:49.445Z,21.4
2019-03-10T03:32:40.065Z,21.4
2019-03-10T03:33:30.088Z,21.4
2019-03-10T03:34:19.967Z,21.4
2019-03-10T03:35:10.226Z,21.5
2019-03-10T03:36:00.336Z,21.4
2019-03-10T03:36:50.306Z,21.4
2019-03-10T03:37:40.347Z,21.4
2019-03-10T03:38:30.403Z,21.4
2019-03-10T03:39:20.467Z,21.5
2019-03-10T03:40:10.275Z,21.4
2019-03-10T03:41:00.599Z,21.4
2019-03-10T03:41:50.659Z,21.4
2019-03-10T03:42:40.778Z,21.4
2019-03-10T03:43:30.771Z,21.4
2019-03-10T03:44:20.567Z,21.4
2019-03-10T03:45:10.901Z,21.4
2019-03-10T03:46:00.715Z,21.4
2019-03-10T03:46:50.769Z,21.4
2019-03-10T03:47:41.064Z,21.4
2019-03-10T03:48:30.871Z,21.4
2019-03-10T03:49:21.198Z,21.4
2019-03-10T03:50:10.980Z,21.5
2019-03-10T03:51:01.058Z,21.4
2019-03-10T03:51:51.146Z,21.4
2019-03-10T03:52:41.172Z,21.5
2019-03-10T03:53:31.223Z,21.4
2019-03-10T03:54:21.045Z,21.4
2019-03-10T03:55:11.637Z,21.4
2019-03-10T03:56:01.424Z,21.4
2019-03-10T03:56:51.736Z,21.4
2019-03-10T03:57:41.794Z,21.4
2019-03-10T03:58:31.869Z,21.4
2019-03-10T03:59:22.022Z,21.4
2019-03-10T04:00:11.705Z,21.5
2019-03-10T04:01:02.033Z,21.5
2019-03-10T04:01:52.111Z,21.4
2019-03-10T04:02:41.896Z,21.5
2019-03-10T04:03:32.235Z,21.4
2019-03-10T04:04:22.282Z,21.4
2019-03-10T04:05:12.396Z,21.5
2019-03-10T04:06:02.407Z,21.4
2019-03-10T04:06:52.470Z,21.4
2019-03-10T04:07:42.534Z,21.5
2019-03-10T04:08:32.065Z,21.4
2019-03-10T04:09:22.658Z,21.5
2019-03-10T04:10:12.719Z,21.4
2019-03-10T04:11:02.509Z,21.5
2019-03-10T04:11:52.839Z,21.5
2019-03-10T04:12:42.609Z,21.5
2019-03-10T04:13:32.955Z,21.5
2019-03-10T04:14:23.004Z,21.5
2019-03-10T04:15:13.093Z,21.5
2019-03-10T04:16:02.877Z,21.5
2019-03-10T04:16:53.268Z,21.5
2019-03-10T04:17:42.976Z,21.5
2019-03-10T04:18:33.398Z,21.5
2019-03-10T04:19:23.367Z,21.5
2019-03-10T04:20:13.164Z,21.5
2019-03-10T04:21:02.983Z,21.5
2019-03-10T04:21:53.273Z,21.5
2019-03-10T04:22:43.619Z,21.5
2019-03-10T04:23:33.671Z,21.5
2019-03-10T04:24:23.734Z,21.5
2019-03-10T04:25:13.798Z,21.5
2019-03-10T04:26:03.931Z,21.5
2019-03-10T04:26:53.911Z,21.5
2019-03-10T04:27:43.981Z,21.5
2019-03-10T04:28:34.121Z,21.5
2019-03-10T04:29:24.113Z,21.5
2019-03-10T04:30:14.163Z,21.5
2019-03-10T04:31:03.945Z,21.5
2019-03-10T04:31:54.313Z,21.5
2019-03-10T04:32:44.349Z,21.5
2019-03-10T04:33:34.391Z,21.5
2019-03-10T04:34:23.910Z,21.5
2019-03-10T04:35:14.523Z,21.5
2019-03-10T04:36:04.297Z,21.5
2019-03-10T04:36:54.639Z,21.5
2019-03-10T04:37:44.690Z,21.5
2019-03-10T04:38:34.748Z,21.5
2019-03-10T04:39:24.544Z,21.5
2019-03-10T04:40:14.645Z,21.5
2019-03-10T04:41:04.951Z,21.5
2019-03-10T04:41:55.010Z,21.5
2019-03-10T04:42:45.063Z,21.5
2019-03-10T04:43:35.114Z,21.5
2019-03-10T04:44:25.177Z,21.5
2019-03-10T04:45:15.238Z,21.5
2019-03-10T04:46:05.307Z,21.5
2019-03-10T04:46:55.357Z,21.5
2019-03-10T04:47:45.419Z,21.5
2019-03-10T04:48:35.485Z,21.5
2019-03-10T04:49:25.555Z,21.5
2019-03-10T04:50:17.599Z,21.5
2019-03-10T04:51:05.662Z,21.5
2019-03-10T04:51:55.716Z,21.5
2019-03-10T04:52:45.787Z,21.5
2019-03-10T04:53:35.854Z,21.5
2019-03-10T04:54:25.631Z,21.5
2019-03-10T04:55:15.689Z,21.5
2019-03-10T04:56:06.036Z,21.5
2019-03-10T04:56:56.088Z,21.5
2019-03-10T04:57:46.146Z,21.5
2019-03-10T04:58:36.201Z,21.5
2019-03-10T04:59:26.273Z,21.5
2019-03-10T05:00:16.328Z,21.5
2019-03-10T05:01:06.379Z,21.5
2019-03-10T05:01:56.445Z,21.5
2019-03-10T05:02:46.506Z,21.5
2019-03-10T05:03:36.296Z,21.5
2019-03-10T05:04:26.623Z,21.5
2019-03-10T05:05:16.412Z,21.5
2019-03-10T05:06:06.771Z,21.5
2019-03-10T05:06:56.538Z,21.5
2019-03-10T05:07:46.875Z,21.5
2019-03-10T05:08:36.933Z,21.5
2019-03-10T05:09:26.716Z,21.5
2019-03-10T05:10:17.048Z,21.5
2019-03-10T05:11:07.115Z,21.5
2019-03-10T05:11:57.170Z,21.5
2019-03-10T05:12:46.963Z,21.5
2019-03-10T05:13:37.288Z,21.5
2019-03-10T05:14:27.354Z,21.5
2019-03-10T05:15:17.415Z,21.5
2019-03-10T05:16:07.249Z,21.6
2019-03-10T05:16:57.528Z,21.5
2019-03-10T05:17:47.597Z,21.5
2019-03-10T05:18:37.107Z,21.5
2019-03-10T05:19:27.172Z,21.5
2019-03-10T05:20:17.775Z,21.6
2019-03-10T05:21:07.876Z,21.6
2019-03-10T05:21:57.622Z,21.5
2019-03-10T05:22:47.955Z,21.5
2019-03-10T05:23:38.025Z,21.5
2019-03-10T05:24:27.852Z,21.5
2019-03-10T05:25:18.099Z,21.5
2019-03-10T05:26:07.653Z,21.5
2019-03-10T05:26:58.263Z,21.5
2019-03-10T05:27:48.042Z,21.5
2019-03-10T05:28:38.382Z,21.6
2019-03-10T05:29:28.435Z,21.5
2019-03-10T05:30:18.499Z,21.6
2019-03-10T05:31:08.562Z,21.5
2019-03-10T05:31:58.617Z,21.6
2019-03-10T05:32:48.726Z,21.6
2019-03-10T05:33:38.742Z,21.6
2019-03-10T05:34:28.521Z,21.6
2019-03-10T05:35:18.595Z,21.6
2019-03-10T05:36:08.926Z,21.6
2019-03-10T05:36:58.979Z,21.6
2019-03-10T05:37:49.039Z,21.5
2019-03-10T05:38:39.114Z,21.6
2019-03-10T05:39:28.884Z,21.6
2019-03-10T05:40:19.222Z,21.6
2019-03-10T05:41:09.006Z,21.6
2019-03-10T05:41:59.088Z,21.6
2019-03-10T05:42:49.396Z,21.6
2019-03-10T05:43:39.470Z,21.6
2019-03-10T05:44:29.521Z,21.6
2019-03-10T05:45:19.586Z,21.6
2019-03-10T05:46:09.651Z,21.6
2019-03-10T05:46:59.699Z,21.6
2019-03-10T05:47:49.791Z,21.6
2019-03-10T05:48:39.881Z,21.6
2019-03-10T05:49:29.880Z,21.6
2019-03-10T05:50:19.941Z,21.6
2019-03-10T05:51:09.998Z,21.6
2019-03-10T05:51:59.793Z,21.6
2019-03-10T05:52:50.128Z,21.6
2019-03-10T05:53:39.908Z,21.6
2019-03-10T05:54:30.256Z,21.6
2019-03-10T05:55:20.303Z,21.6
2019-03-10T05:56:10.108Z,21.6
2019-03-10T05:57:00.431Z,21.6
2019-03-10T05:57:50.217Z,21.6
2019-03-10T05:58:40.274Z,21.6
2019-03-10T05:59:30.350Z,21.6
2019-03-10T06:00:20.669Z,21.6
2019-03-10T06:01:10.731Z,21.6
2019-03-10T06:02:00.807Z,21.6
2019-03-10T06:02:50.850Z,21.6
2019-03-10T06:03:40.902Z,21.6
2019-03-10T06:05:37.770Z,21.6
2019-03-10T06:06:28.105Z,21.6
2019-03-10T06:07:17.893Z,21.6
2019-03-10T06:08:08.220Z,21.6
2019-03-10T06:08:58.009Z,21.6
2019-03-10T06:09:48.360Z,21.6
2019-03-10T06:10:38.399Z,21.6
2019-03-10T06:11:28.459Z,21.6
2019-03-10T06:12:18.525Z,21.6
2019-03-10T06:13:08.582Z,21.6
2019-03-10T06:13:58.634Z,21.6
2019-03-10T06:14:48.704Z,21.6
2019-03-10T06:15:38.492Z,21.6
2019-03-10T06:16:28.819Z,21.6
2019-03-10T06:17:18.615Z,21.6
2019-03-10T06:18:14.911Z,21.7
2019-03-10T06:18:59.007Z,21.6
2019-03-10T06:19:49.077Z,21.6
2019-03-10T06:20:39.129Z,21.7
2019-03-10T06:21:29.187Z,21.7
2019-03-10T06:22:18.974Z,21.7
2019-03-10T06:23:09.034Z,21.7
2019-03-10T06:23:59.371Z,21.7
2019-03-10T06:24:49.159Z,21.7
2019-03-10T06:25:39.486Z,21.7
2019-03-10T06:26:29.551Z,21.7
2019-03-10T06:27:19.601Z,21.7
2019-03-10T06:28:09.121Z,21.7
2019-03-10T06:28:59.458Z,21.7
2019-03-10T06:29:49.789Z,21.7
2019-03-10T06:30:39.859Z,21.7
2019-03-10T06:31:29.639Z,21.7
2019-03-10T06:32:19.984Z,21.7
2019-03-10T06:33:10.021Z,21.7
2019-03-10T06:34:00.092Z,21.7
2019-03-10T06:34:49.876Z,21.7
2019-03-10T06:35:40.216Z,21.7
2019-03-10T06:36:29.996Z,21.7
2019-03-10T06:37:20.066Z,21.7
2019-03-10T06:38:10.106Z,21.8
2019-03-10T06:39:00.464Z,21.7
2019-03-10T06:39:50.244Z,21.8
2019-03-10T06:40:40.570Z,21.7
2019-03-10T06:41:30.356Z,21.7
2019-03-10T06:42:20.430Z,21.8
2019-03-10T06:43:10.746Z,21.7
2019-03-10T06:44:00.806Z,21.8
2019-03-10T06:44:50.868Z,21.7
2019-03-10T06:45:40.659Z,21.8
2019-03-10T06:46:30.730Z,21.8
2019-03-10T06:47:20.772Z,21.8
2019-03-10T06:48:10.560Z,21.8
2019-03-10T06:49:01.173Z,21.8
2019-03-10T06:49:50.950Z,21.8
2019-03-10T06:50:41.300Z,21.7
2019-03-10T06:51:31.363Z,21.8
2019-03-10T06:52:21.419Z,21.8
2019-03-10T06:53:11.529Z,21.8
2019-03-10T06:54:01.538Z,21.8
2019-03-10T06:54:51.378Z,21.8
2019-03-10T06:55:41.385Z,21.8
2019-03-10T06:56:31.712Z,21.8
2019-03-10T06:57:21.505Z,21.8
2019-03-10T06:58:11.287Z,21.8
2019-03-10T06:59:01.897Z,21.8
2019-03-10T06:59:52.025Z,21.8
2019-03-10T07:00:42.050Z,21.8
2019-03-10T07:01:31.809Z,21.8
2019-03-10T07:02:22.139Z,21.8
2019-03-10T07:03:12.207Z,21.8
2019-03-10T07:05:37.723Z,21.8
2019-03-10T07:06:28.058Z,21.8
2019-03-10T07:07:17.844Z,21.8
2019-03-10T07:08:07.907Z,21.8
2019-03-10T07:08:58.239Z,21.8
2019-03-10T07:09:48.296Z,21.8
2019-03-10T07:10:38.384Z,21.8
2019-03-10T07:11:28.479Z,21.8
2019-03-10T07:12:18.474Z,21.8
2019-03-10T07:13:08.542Z,21.8
2019-03-10T07:13:58.601Z,21.8
2019-03-10T07:14:48.669Z,21.8
2019-03-10T07:15:38.718Z,21.8
2019-03-10T07:16:28.509Z,21.8
2019-03-10T07:17:18.568Z,21.8
2019-03-10T07:18:08.895Z,21.8
2019-03-10T07:18:59.026Z,21.8
2019-03-10T07:19:48.742Z,21.8
2019-03-10T07:20:39.090Z,21.8
2019-03-10T07:21:28.856Z,21.8
2019-03-10T07:22:19.206Z,21.8
2019-03-10T07:23:09.261Z,21.8
2019-03-10T07:23:59.333Z,21.8
2019-03-10T07:24:49.375Z,21.8
2019-03-10T07:25:39.168Z,21.8
2019-03-10T07:26:29.510Z,21.8
2019-03-10T07:27:19.278Z,21.8
2019-03-10T07:28:09.625Z,21.8
2019-03-10T07:28:59.680Z,21.8
2019-03-10T07:29:49.737Z,21.8
2019-03-10T07:30:39.802Z,21.8
2019-03-10T07:31:29.580Z,21.8
2019-03-10T07:32:19.988Z,21.8
2019-03-10T07:33:09.712Z,21.8
2019-03-10T07:34:00.040Z,21.8
2019-03-10T07:34:50.097Z,21.8
2019-03-10T07:35:40.168Z,21.8
2019-03-10T07:36:30.227Z,21.8
2019-03-10T07:37:20.290Z,21.8
2019-03-10T07:38:10.069Z,21.9
2019-03-10T07:39:00.402Z,21.9
2019-03-10T07:39:49.932Z,21.9
2019-03-10T07:40:39.982Z,21.9
2019-03-10T07:41:30.592Z,21.9
2019-03-10T07:42:20.647Z,21.9
2019-03-10T07:43:10.702Z,21.9
2019-03-10T07:44:00.772Z,21.9
2019-03-10T07:44:50.837Z,21.9
2019-03-10T07:45:40.882Z,21.9
2019-03-10T07:46:30.952Z,21.9
2019-03-10T07:47:21.024Z,21.9
2019-03-10T07:48:10.799Z,21.9
2019-03-10T07:49:01.129Z,21.9
2019-03-10T07:49:51.193Z,21.9
2019-03-10T07:50:41.249Z,21.9
2019-03-10T07:51:31.307Z,21.9
2019-03-10T07:52:21.811Z,21.9
2019-03-10T07:53:11.429Z,21.9
2019-03-10T07:54:01.486Z,21.9
2019-03-10T07:54:51.539Z,21.9
2019-03-10T07:55:41.616Z,21.9
2019-03-10T07:56:31.677Z,21.9
2019-03-10T07:57:21.471Z,21.9
2019-03-10T07:58:11.523Z,21.9
2019-03-10T07:59:01.577Z,21.9
2019-03-10T07:59:51.646Z,21.9
2019-03-10T08:00:42.026Z,21.9
2019-03-10T08:01:32.038Z,21.9
2019-03-10T08:02:22.104Z,21.9
2019-03-10T08:03:12.161Z,21.9
2019-03-10T08:04:01.959Z,21.9
2019-03-10T08:04:52.058Z,21.9
2019-03-10T08:05:42.344Z,21.9
2019-03-10T08:06:31.853Z,21.9
2019-03-10T08:07:22.210Z,21.9
2019-03-10T08:08:12.303Z,21.9
2019-03-10T08:09:02.591Z,21.9
2019-03-10T08:09:52.651Z,21.9
2019-03-10T08:10:42.685Z,21.9
2019-03-10T08:11:32.478Z,21.9
2019-03-10T08:12:22.805Z,21.9
2019-03-10T08:13:12.876Z,21.9
2019-03-10T08:14:02.660Z,21.9
2019-03-10T08:14:53.005Z,21.9
2019-03-10T08:15:43.061Z,21.9
2019-03-10T08:16:32.852Z,21.9
2019-03-10T08:17:25.617Z,21.9
2019-03-10T08:18:13.241Z,21.9
2019-03-10T08:19:03.317Z,21.9
2019-03-10T08:19:53.368Z,21.9
2019-03-10T08:20:43.417Z,21.9
2019-03-10T08:21:33.472Z,21.9
2019-03-10T08:22:23.266Z,21.9
2019-03-10T08:23:13.623Z,21.9
2019-03-10T08:24:03.660Z,22
2019-03-10T08:24:53.722Z,21.9
2019-03-10T08:25:43.509Z,21.9
2019-03-10T08:26:33.840Z,21.9
2019-03-10T08:27:23.902Z,21.9
2019-03-10T08:28:13.962Z,21.9
2019-03-10T08:29:04.024Z,21.9
2019-03-10T08:29:54.080Z,21.9
2019-03-10T08:30:44.173Z,21.9
2019-03-10T08:31:34.204Z,22
2019-03-10T08:32:23.994Z,21.9
2019-03-10T08:33:14.319Z,22
2019-03-10T08:34:04.390Z,21.9
2019-03-10T08:34:54.453Z,22
2019-03-10T08:35:44.509Z,22
2019-03-10T08:36:34.581Z,21.9
2019-03-10T08:37:24.629Z,22
2019-03-10T08:38:14.695Z,22
2019-03-10T08:39:04.498Z,22
2019-03-10T08:39:54.854Z,22
2019-03-10T08:40:44.606Z,22
2019-03-10T08:41:34.926Z,22
2019-03-10T08:42:24.996Z,22
2019-03-10T08:43:15.046Z,22
2019-03-10T08:44:05.113Z,22
2019-03-10T08:44:55.171Z,22
2019-03-10T08:45:45.233Z,22
2019-03-10T08:46:35.288Z,22
2019-03-10T08:47:24.806Z,22
2019-03-10T08:48:15.403Z,22
2019-03-10T08:49:05.481Z,22
2019-03-10T08:49:55.533Z,22
2019-03-10T08:50:45.603Z,22
2019-03-10T08:51:35.650Z,22
2019-03-10T08:52:25.713Z,22
2019-03-10T08:53:15.776Z,22
2019-03-10T08:54:05.843Z,22
2019-03-10T08:54:55.895Z,22.1
2019-03-10T08:55:45.962Z,22
2019-03-10T08:56:35.748Z,22
2019-03-10T08:57:26.075Z,22.1
2019-03-10T08:58:16.145Z,22.1
2019-03-10T08:59:06.195Z,22.1
2019-03-10T08:59:55.985Z,22.1
2019-03-10T09:00:46.097Z,22.1
2019-03-10T09:01:36.114Z,22.1
2019-03-10T09:02:26.442Z,22.1
2019-03-10T09:03:16.237Z,22.1
2019-03-10T09:04:06.560Z,22.1
2019-03-10T09:04:56.618Z,22.1
2019-03-10T09:05:46.402Z,22.1
2019-03-10T09:06:36.739Z,22.1
2019-03-10T09:07:26.799Z,22.1
2019-03-10T09:08:16.864Z,22.1
2019-03-10T09:09:06.925Z,22.1
2019-03-10T09:09:56.987Z,22.1
2019-03-10T09:10:47.097Z,22.1
2019-03-10T09:11:37.099Z,22.1
2019-03-10T09:12:27.162Z,22.1
2019-03-10T09:13:17.222Z,22.1
2019-03-10T09:14:07.285Z,22.1
2019-03-10T09:14:57.074Z,22.1
2019-03-10T09:15:46.860Z,22.1
2019-03-10T09:16:37.464Z,22.1
2019-03-10T09:17:27.530Z,22.1
2019-03-10T09:18:17.324Z,22.1
2019-03-10T09:19:07.651Z,22.1
2019-03-10T09:19:57.711Z,22.1
2019-03-10T09:20:47.777Z,22.1
2019-03-10T09:21:37.836Z,22.1
2019-03-10T09:22:27.619Z,22.1
2019-03-10T09:23:17.963Z,22.1
2019-03-10T09:24:08.014Z,22.1
2019-03-10T09:24:58.073Z,22.1
2019-03-10T09:25:48.128Z,22.1
2019-03-10T09:26:37.918Z,22.1
2019-03-10T09:27:29.347Z,22.1
2019-03-10T09:28:18.338Z,22.1
2019-03-10T09:29:08.388Z,22.1
2019-03-10T09:29:58.448Z,22.1
2019-03-10T09:30:48.502Z,22.1
2019-03-10T09:31:38.273Z,22.1
2019-03-10T09:32:28.639Z,22.1
2019-03-10T09:33:18.678Z,22.1
2019-03-10T09:34:08.468Z,22.1
2019-03-10T09:34:58.793Z,22.1
2019-03-10T09:35:48.851Z,22.1
2019-03-10T09:36:38.914Z,22.1
2019-03-10T09:37:28.992Z,22.1
2019-03-10T09:38:19.036Z,22.1
2019-03-10T09:39:09.095Z,22.1
2019-03-10T09:39:59.155Z,22.1
2019-03-10T09:40:49.226Z,22.1
2019-03-10T09:41:39.288Z,22.1
2019-03-10T09:42:29.350Z,22.1
2019-03-10T09:43:19.405Z,22.1
2019-03-10T09:44:09.190Z,22.1
2019-03-10T09:44:59.254Z,22.1
2019-03-10T09:45:49.315Z,22.1
2019-03-10T09:46:39.642Z,22.1
2019-03-10T09:47:29.452Z,22.1
2019-03-10T09:48:19.764Z,22.1
2019-03-10T09:49:09.829Z,22.1
2019-03-10T09:49:59.643Z,22.1
2019-03-10T09:50:49.947Z,22.1
2019-03-10T09:51:40.016Z,22.1
2019-03-10T09:52:29.782Z,22.1
2019-03-10T09:53:19.856Z,22.1
2019-03-10T09:54:10.192Z,22.1
2019-03-10T09:55:02.197Z,22.1
2019-03-10T09:55:50.304Z,22.1
2019-03-10T09:56:40.374Z,22
2019-03-10T09:57:30.156Z,21.9
2019-03-10T09:58:20.504Z,21.9
2019-03-10T09:59:10.549Z,21.9
2019-03-10T10:00:00.804Z,21.9
2019-03-10T10:00:50.666Z,21.9
2019-03-10T10:01:40.471Z,21.9
2019-03-10T10:02:30.517Z,21.8
2019-03-10T10:03:20.846Z,21.8
2019-03-10T10:04:10.906Z,21.7
2019-03-10T10:06:37.918Z,21.7
2019-03-10T10:07:27.656Z,21.6
2019-03-10T10:08:17.738Z,21.5
2019-03-10T10:09:07.776Z,21.4
2019-03-10T10:09:57.566Z,21.4
2019-03-10T10:10:48.170Z,21.4
2019-03-10T10:11:38.226Z,21.3
2019-03-10T10:12:28.009Z,21.3
2019-03-10T10:13:18.365Z,21.3
2019-03-10T10:14:08.408Z,21.3
2019-03-10T10:14:58.468Z,21.3
2019-03-10T10:15:48.521Z,21.2
2019-03-10T10:16:38.317Z,21.3
2019-03-10T10:17:28.378Z,21.3
2019-03-10T10:18:18.431Z,21.3
2019-03-10T10:19:08.824Z,21.3
2019-03-10T10:19:58.830Z,21.3
2019-03-10T10:20:48.893Z,21.3
2019-03-10T10:21:38.943Z,21.3
2019-03-10T10:22:28.737Z,21.3
2019-03-10T10:23:18.811Z,21.3
2019-03-10T10:24:08.875Z,21.2
2019-03-10T10:34:09.852Z,21.1
2019-03-10T10:34:59.913Z,21.1
2019-03-10T10:35:49.429Z,21
2019-03-10T10:36:39.782Z,20.9
2019-03-10T10:37:29.830Z,21
2019-03-10T10:38:20.310Z,21
2019-03-10T10:39:10.225Z,21
2019-03-10T10:40:00.487Z,21
2019-03-10T10:40:50.357Z,21
2019-03-10T10:41:40.403Z,21
2019-03-10T10:42:30.464Z,21
2019-03-10T10:43:20.271Z,20.9
2019-03-10T10:44:10.589Z,20.9
2019-03-10T10:45:00.742Z,20.9
2019-03-10T10:45:50.437Z,20.9
2019-03-10T10:46:40.772Z,20.8
2019-03-10T10:47:30.570Z,20.8
2019-03-10T10:48:20.612Z,20.8
2019-03-10T10:49:10.697Z,20.8
2019-03-10T10:50:01.074Z,20.8
2019-03-10T10:50:50.819Z,20.8
2019-03-10T10:51:41.159Z,20.8
2019-03-10T10:52:31.273Z,20.8
2019-03-10T10:53:22.660Z,20.9
2019-03-10T10:54:11.344Z,20.9
2019-03-10T10:55:01.569Z,20.9
2019-03-10T10:55:51.460Z,20.9
2019-03-10T10:56:41.672Z,20.9
2019-03-10T10:57:31.294Z,20.9
2019-03-10T10:58:21.626Z,20.9
2019-03-10T10:59:11.686Z,20.8
2019-03-10T11:00:01.467Z,20.8
2019-03-10T11:00:51.804Z,20.8
2019-03-10T11:01:41.586Z,20.8
2019-03-10T11:02:31.913Z,20.8
2019-03-10T11:03:22.016Z,20.8
2019-03-10T11:04:12.041Z,20.8
2019-03-10T11:05:01.832Z,20.8
2019-03-10T11:05:52.163Z,20.8
2019-03-10T11:06:41.953Z,20.8
2019-03-10T11:07:32.006Z,20.9
2019-03-10T11:08:22.394Z,20.9
2019-03-10T11:09:12.130Z,20.9
2019-03-10T11:10:02.483Z,20.9
2019-03-10T11:10:52.529Z,20.9
2019-03-10T11:11:42.922Z,21
2019-03-10T11:12:32.365Z,21
2019-03-10T11:13:22.503Z,21
2019-03-10T11:14:12.495Z,21
2019-03-10T11:15:02.860Z,21
2019-03-10T11:15:54.520Z,21
2019-03-10T11:16:42.675Z,21
2019-03-10T11:17:32.731Z,21
2019-03-10T11:18:23.068Z,21
2019-03-10T11:19:13.132Z,21
2019-03-10T11:20:03.195Z,21
2019-03-10T11:20:53.264Z,21.1
2019-03-10T11:21:43.317Z,21.1
2019-03-10T11:22:33.422Z,21.1
2019-03-10T11:23:23.432Z,21.1
2019-03-10T11:24:13.490Z,21.1
2019-03-10T11:25:03.282Z,21.1
2019-03-10T11:25:53.352Z,21.1
2019-03-10T11:26:43.403Z,21.1
2019-03-10T11:35:04.037Z,21.2
2019-03-10T11:38:24.259Z,21.2
2019-03-10T11:40:54.443Z,21.2
2019-03-10T11:41:44.772Z,21.2
2019-03-10T11:42:34.836Z,21.2
2019-03-10T11:43:24.641Z,21.2
2019-03-10T11:44:14.962Z,21.2
2019-03-10T11:45:04.738Z,21.2
2019-03-10T11:45:55.091Z,21.2
2019-03-10T11:46:45.138Z,21.2
2019-03-10T11:47:35.211Z,21.2
2019-03-10T11:48:25.278Z,21.2
2019-03-10T11:49:15.326Z,21.2
2019-03-10T11:50:05.468Z,21.2
2019-03-10T11:50:55.431Z,21.2
2019-03-10T11:51:45.226Z,21.2
2019-03-10T11:52:35.291Z,21.2
2019-03-10T11:53:26.916Z,21.2
2019-03-10T11:54:15.708Z,21.2
2019-03-10T11:55:05.914Z,21.2
2019-03-10T11:55:55.810Z,21.3
2019-03-10T11:56:45.875Z,21.2
2019-03-10T11:57:35.940Z,21.2
2019-03-10T11:58:26.076Z,21.3
2019-03-10T11:59:16.053Z,21.2
2019-03-10T12:00:05.857Z,21.2
2019-03-10T12:00:55.903Z,21.2
2019-03-10T12:01:46.235Z,21.3
2019-03-10T12:02:36.301Z,21.2
2019-03-10T12:03:26.077Z,21.2
2019-03-10T12:04:16.420Z,21.3
2019-03-10T12:06:37.788Z,21.3
2019-03-10T12:07:27.292Z,21.3
2019-03-10T12:08:17.952Z,21.2
2019-03-10T12:09:07.695Z,21.2
2019-03-10T12:09:58.044Z,21.2
2019-03-10T12:10:47.811Z,21.3
2019-03-10T12:11:38.159Z,21.2
2019-03-10T12:12:27.919Z,21.3
2019-03-10T12:13:17.985Z,21.3
2019-03-10T12:14:08.041Z,21.2
2019-03-10T12:14:58.177Z,21.2
2019-03-10T12:15:48.179Z,21.3
2019-03-10T12:16:38.226Z,21.3
2019-03-10T12:17:28.288Z,21.3
2019-03-10T12:18:18.637Z,21.3
2019-03-10T12:19:08.419Z,21.3
2019-03-10T12:19:58.743Z,21.2
2019-03-10T12:20:48.821Z,21.2
2019-03-10T12:21:38.874Z,21.2
2019-03-10T12:22:28.931Z,21.3
2019-03-10T12:23:18.998Z,21.3
2019-03-10T12:24:08.807Z,21.3
2019-03-10T12:24:59.111Z,21.3
2019-03-10T12:25:49.175Z,21.3
2019-03-10T12:26:39.238Z,21.3
2019-03-10T12:27:29.291Z,21.3
2019-03-10T12:28:19.351Z,21.3
2019-03-10T12:29:09.406Z,21.3
2019-03-10T12:29:59.213Z,21.3
2019-03-10T12:30:49.256Z,21.3
2019-03-10T12:31:39.633Z,21.3
2019-03-10T12:32:29.098Z,21.3
2019-03-10T12:33:19.458Z,21.3
2019-03-10T12:34:09.504Z,21.3
2019-03-10T12:34:59.843Z,21.3
2019-03-10T12:35:49.615Z,21.3
2019-03-10T12:36:39.762Z,21.3
2019-03-10T12:37:30.023Z,21.3
2019-03-10T12:38:20.076Z,21.3
2019-03-10T12:39:09.865Z,21.3
2019-03-10T12:40:00.338Z,21.3
2019-03-10T12:40:49.991Z,21.3
2019-03-10T12:41:40.320Z,21.3
2019-03-10T12:42:30.387Z,21.3
2019-03-10T12:43:20.222Z,21.3
2019-03-10T12:44:10.230Z,21.3
2019-03-10T12:45:00.878Z,21.3
2019-03-10T12:45:50.631Z,21.3
2019-03-10T12:46:40.688Z,21.3
2019-03-10T12:47:30.490Z,21.3
2019-03-10T12:48:20.809Z,21.3
2019-03-10T12:49:10.880Z,21.3
2019-03-10T12:50:00.938Z,21.3
2019-03-10T12:50:51.003Z,21.3
2019-03-10T12:51:41.052Z,21.3
2019-03-10T12:52:31.107Z,21.3
2019-03-10T12:53:20.892Z,21.3
2019-03-10T12:54:10.954Z,21.3
2019-03-10T12:55:01.390Z,21.3
2019-03-10T12:55:51.082Z,21.3
2019-03-10T12:56:41.842Z,21.3
2019-03-10T12:57:31.208Z,21.3
2019-03-10T12:58:21.541Z,21.3
2019-03-10T12:59:11.372Z,21.3
2019-03-10T13:00:01.658Z,21.3
2019-03-10T13:00:51.735Z,21.3
2019-03-10T13:01:41.796Z,21.3
2019-03-10T13:02:31.854Z,21.3
2019-03-10T13:03:21.903Z,21.3
2019-03-10T13:04:11.966Z,21.3
2019-03-10T13:05:02.072Z,21.3
2019-03-10T13:05:51.817Z,21.3
2019-03-10T13:06:42.146Z,21.3
2019-03-10T13:07:32.209Z,21.3
2019-03-10T13:08:21.994Z,21.3
2019-03-10T13:09:12.334Z,21.3
2019-03-10T13:10:02.401Z,21.3
2019-03-10T13:10:52.451Z,21.3
2019-03-10T13:11:42.525Z,21.3
2019-03-10T13:12:32.581Z,21.3
2019-03-10T13:13:22.361Z,21.3
2019-03-10T13:14:12.703Z,21.3
2019-03-10T13:15:02.704Z,21.3
2019-03-10T13:15:52.541Z,21.3
2019-03-10T13:16:42.616Z,21.3
2019-03-10T13:17:32.941Z,21.3
2019-03-10T13:18:23.009Z,21.3
2019-03-10T13:19:13.084Z,21.3
2019-03-10T13:20:03.129Z,21.3
2019-03-10T13:20:53.181Z,21.3
2019-03-10T13:21:43.703Z,21.3
2019-03-10T13:22:33.306Z,21.3
2019-03-10T13:23:23.377Z,21.3
2019-03-10T13:24:13.430Z,21.3
2019-03-10T13:25:03.217Z,21.3
2019-03-10T13:25:53.553Z,21.3
2019-03-10T13:26:43.626Z,21.3
2019-03-10T13:27:33.406Z,21.3
2019-03-10T13:28:23.806Z,21.3
2019-03-10T13:29:13.528Z,21.3
2019-03-10T13:30:03.861Z,21.3
2019-03-10T13:30:53.660Z,21.3
2019-03-10T13:31:43.980Z,21.3
2019-03-10T13:32:34.042Z,21.3
2019-03-10T13:33:23.839Z,21.3
2019-03-10T13:34:14.186Z,21.3
2019-03-10T13:35:04.217Z,21.3
2019-03-10T13:35:54.001Z,21.3
2019-03-10T13:36:44.398Z,21.3
2019-03-10T13:37:34.129Z,21.3
2019-03-10T13:38:24.457Z,21.3
2019-03-10T13:39:14.517Z,21.3
2019-03-10T13:40:04.594Z,21.3
2019-03-10T13:40:54.644Z,21.4
2019-03-10T13:41:44.707Z,21.3
2019-03-10T13:42:34.769Z,21.3
2019-03-10T13:43:24.567Z,21.3
2019-03-10T13:44:14.884Z,21.3
2019-03-10T13:45:04.679Z,21.3
2019-03-10T13:45:55.008Z,21.3
2019-03-10T13:46:45.104Z,21.3
2019-03-10T13:47:35.158Z,21.3
2019-03-10T13:48:25.210Z,21.3
2019-03-10T13:49:15.248Z,21.3
2019-03-10T13:50:04.773Z,21.3
2019-03-10T13:50:55.374Z,21.3
2019-03-10T13:51:45.426Z,21.3
2019-03-10T13:52:35.261Z,21.3
2019-03-10T13:53:25.557Z,21.3
2019-03-10T13:54:15.624Z,21.3
2019-03-10T13:55:05.406Z,21.3
2019-03-10T13:55:55.205Z,21.3
2019-03-10T13:56:45.528Z,21.3
2019-03-10T13:57:35.869Z,21.3
2019-03-10T13:58:25.914Z,21.3
2019-03-10T13:59:15.436Z,21.3
2019-03-10T14:00:06.049Z,21.3
2019-03-10T14:00:56.098Z,21.3
2019-03-10T14:01:45.895Z,21.3
2019-03-10T14:02:36.228Z,21.3
2019-03-10T14:03:26.275Z,21.3
2019-03-10T14:04:16.348Z,21.3
2019-03-10T14:05:06.148Z,21.4
2019-03-10T14:07:37.743Z,21.3
2019-03-10T14:08:27.746Z,21.3
2019-03-10T14:09:17.800Z,21.3
2019-03-10T14:10:10.427Z,21.3
2019-03-10T14:10:57.930Z,21.3
2019-03-10T14:11:47.703Z,21.4
2019-03-10T14:12:38.096Z,21.4
2019-03-10T14:13:28.115Z,21.3
2019-03-10T14:14:18.163Z,21.4
2019-03-10T14:15:07.963Z,21.3
2019-03-10T14:15:58.348Z,21.3
2019-03-10T14:16:48.355Z,21.4
2019-03-10T14:17:38.458Z,21.4
2019-03-10T14:18:28.475Z,21.4
2019-03-10T14:19:18.527Z,21.4
2019-03-10T14:20:08.591Z,21.3
2019-03-10T14:20:58.387Z,21.4
2019-03-10T14:21:48.722Z,21.4
2019-03-10T14:22:38.770Z,21.4
2019-03-10T14:23:28.577Z,21.4
2019-03-10T14:24:18.896Z,21.4
2019-03-10T14:25:08.972Z,21.4
2019-03-10T14:25:59.019Z,21.4
2019-03-10T14:26:48.802Z,21.4
2019-03-10T14:27:39.132Z,21.4
2019-03-10T14:28:29.194Z,21.4
2019-03-10T14:29:18.984Z,21.4
2019-03-10T14:30:09.319Z,21.4
2019-03-10T14:30:59.373Z,21.4
2019-03-10T14:31:49.178Z,21.4
2019-03-10T14:32:39.556Z,21.4
2019-03-10T14:33:29.567Z,21.4
2019-03-10T14:34:19.094Z,21.4
2019-03-10T14:35:09.689Z,21.4
2019-03-10T14:35:59.763Z,21.4
2019-03-10T14:36:49.540Z,21.4
2019-03-10T14:37:39.609Z,21.4
2019-03-10T14:38:29.999Z,21.4
2019-03-10T14:39:19.994Z,21.4
2019-03-10T14:40:10.050Z,21.4
2019-03-10T14:41:00.119Z,21.4
2019-03-10T14:41:49.898Z,21.4
2019-03-10T14:42:39.954Z,21.4
2019-03-10T14:43:30.298Z,21.4
2019-03-10T14:44:20.078Z,21.4